sensor_id;sensor_type;location;lat;lon;timestamp;temperature;humidity
30304;DHT22;17112;48.636;10.152;2024-02-23T00:00:28;11.20;68.50
30304;DHT22;17112;48.636;10.152;2024-02-23T00:02:54;11.20;68.50
30304;DHT22;17112;48.636;10.152;2024-02-23T00:05:22;11.20;69.10
30304;DHT22;17112;48.636;10.152;2024-02-23T00:07:47;11.20;68.40
30304;DHT22;17112;48.636;10.152;2024-02-23T00:10:13;11.10;68.40
30304;DHT22;17112;48.636;10.152;2024-02-23T00:12:39;11.10;68.30
30304;DHT22;17112;48.636;10.152;2024-02-23T00:15:05;11.10;68.20
30304;DHT22;17112;48.636;10.152;2024-02-23T00:17:31;11.00;67.70
30304;DHT22;17112;48.636;10.152;2024-02-23T00:19:56;11.00;67.10
30304;DHT22;17112;48.636;10.152;2024-02-23T00:22:22;10.80;66.90
30304;DHT22;17112;48.636;10.152;2024-02-23T00:24:48;10.70;67.00
30304;DHT22;17112;48.636;10.152;2024-02-23T00:27:13;10.50;66.10
30304;DHT22;17112;48.636;10.152;2024-02-23T00:29:39;10.30;65.80
30304;DHT22;17112;48.636;10.152;2024-02-23T00:32:06;10.10;66.10
30304;DHT22;17112;48.636;10.152;2024-02-23T00:34:32;9.90;66.30
30304;DHT22;17112;48.636;10.152;2024-02-23T00:36:57;9.70;66.80
30304;DHT22;17112;48.636;10.152;2024-02-23T00:39:23;9.50;67.20
30304;DHT22;17112;48.636;10.152;2024-02-23T00:41:49;9.30;67.60
30304;DHT22;17112;48.636;10.152;2024-02-23T00:44:15;9.20;68.10
30304;DHT22;17112;48.636;10.152;2024-02-23T00:46:41;9.10;68.20
30304;DHT22;17112;48.636;10.152;2024-02-23T00:49:08;9.00;68.20
30304;DHT22;17112;48.636;10.152;2024-02-23T00:51:34;8.90;68.10
30304;DHT22;17112;48.636;10.152;2024-02-23T00:53:59;8.80;68.20
30304;DHT22;17112;48.636;10.152;2024-02-23T00:56:25;8.70;68.30
30304;DHT22;17112;48.636;10.152;2024-02-23T00:58:51;8.70;68.30
30304;DHT22;17112;48.636;10.152;2024-02-23T01:01:17;8.60;68.50
30304;DHT22;17112;48.636;10.152;2024-02-23T01:03:42;8.60;68.60
30304;DHT22;17112;48.636;10.152;2024-02-23T01:06:08;8.60;68.10
30304;DHT22;17112;48.636;10.152;2024-02-23T01:08:34;8.50;68.20
30304;DHT22;17112;48.636;10.152;2024-02-23T01:11:01;8.40;68.10
30304;DHT22;17112;48.636;10.152;2024-02-23T01:13:26;8.40;68.20
30304;DHT22;17112;48.636;10.152;2024-02-23T01:15:52;8.40;68.30
30304;DHT22;17112;48.636;10.152;2024-02-23T01:18:19;8.40;68.20
30304;DHT22;17112;48.636;10.152;2024-02-23T01:20:45;8.30;68.20
30304;DHT22;17112;48.636;10.152;2024-02-23T01:23:11;8.30;68.30
30304;DHT22;17112;48.636;10.152;2024-02-23T01:25:37;8.20;68.40
30304;DHT22;17112;48.636;10.152;2024-02-23T01:28:03;8.20;68.50
30304;DHT22;17112;48.636;10.152;2024-02-23T01:30:29;8.20;68.70
30304;DHT22;17112;48.636;10.152;2024-02-23T01:32:54;8.10;68.90
30304;DHT22;17112;48.636;10.152;2024-02-23T01:35:20;8.10;69.10
30304;DHT22;17112;48.636;10.152;2024-02-23T01:37:46;8.10;69.10
30304;DHT22;17112;48.636;10.152;2024-02-23T01:40:11;8.00;69.00
30304;DHT22;17112;48.636;10.152;2024-02-23T01:42:38;8.00;69.00
30304;DHT22;17112;48.636;10.152;2024-02-23T01:45:04;8.00;69.20
30304;DHT22;17112;48.636;10.152;2024-02-23T01:47:30;8.00;69.30
30304;DHT22;17112;48.636;10.152;2024-02-23T01:49:58;8.00;69.50
30304;DHT22;17112;48.636;10.152;2024-02-23T01:52:24;8.00;69.60
30304;DHT22;17112;48.636;10.152;2024-02-23T01:54:51;8.00;69.50
30304;DHT22;17112;48.636;10.152;2024-02-23T01:57:17;8.00;69.60
30304;DHT22;17112;48.636;10.152;2024-02-23T01:59:43;8.00;69.60
30304;DHT22;17112;48.636;10.152;2024-02-23T02:02:09;8.00;69.60
30304;DHT22;17112;48.636;10.152;2024-02-23T02:04:35;8.00;69.60
30304;DHT22;17112;48.636;10.152;2024-02-23T02:07:00;8.00;69.70
30304;DHT22;17112;48.636;10.152;2024-02-23T02:09:26;7.90;69.60
30304;DHT22;17112;48.636;10.152;2024-02-23T02:11:52;8.00;69.60
30304;DHT22;17112;48.636;10.152;2024-02-23T02:14:18;8.00;69.60
30304;DHT22;17112;48.636;10.152;2024-02-23T02:16:44;8.00;69.60
30304;DHT22;17112;48.636;10.152;2024-02-23T02:19:11;8.00;69.60
30304;DHT22;17112;48.636;10.152;2024-02-23T02:21:37;8.00;69.50
30304;DHT22;17112;48.636;10.152;2024-02-23T02:24:04;8.00;69.50
30304;DHT22;17112;48.636;10.152;2024-02-23T02:26:30;8.00;69.50
30304;DHT22;17112;48.636;10.152;2024-02-23T02:28:56;8.00;69.40
30304;DHT22;17112;48.636;10.152;2024-02-23T02:31:22;8.00;69.40
30304;DHT22;17112;48.636;10.152;2024-02-23T02:33:47;8.00;69.40
30304;DHT22;17112;48.636;10.152;2024-02-23T02:36:13;8.00;69.40
30304;DHT22;17112;48.636;10.152;2024-02-23T02:38:39;8.00;69.30
30304;DHT22;17112;48.636;10.152;2024-02-23T02:41:05;8.00;69.20
30304;DHT22;17112;48.636;10.152;2024-02-23T02:43:31;8.00;69.20
30304;DHT22;17112;48.636;10.152;2024-02-23T02:45:57;8.00;69.20
30304;DHT22;17112;48.636;10.152;2024-02-23T02:48:24;8.10;69.40
30304;DHT22;17112;48.636;10.152;2024-02-23T02:50:50;8.10;69.40
30304;DHT22;17112;48.636;10.152;2024-02-23T02:53:16;8.10;69.30
30304;DHT22;17112;48.636;10.152;2024-02-23T02:55:43;8.10;69.30
30304;DHT22;17112;48.636;10.152;2024-02-23T02:58:11;8.10;69.20
30304;DHT22;17112;48.636;10.152;2024-02-23T03:00:36;8.10;69.10
30304;DHT22;17112;48.636;10.152;2024-02-23T03:03:02;8.10;69.20
30304;DHT22;17112;48.636;10.152;2024-02-23T03:05:28;8.10;69.10
30304;DHT22;17112;48.636;10.152;2024-02-23T03:07:53;8.10;69.20
30304;DHT22;17112;48.636;10.152;2024-02-23T03:10:19;8.10;69.40
30304;DHT22;17112;48.636;10.152;2024-02-23T03:12:45;8.10;69.20
30304;DHT22;17112;48.636;10.152;2024-02-23T03:15:10;8.10;69.20
30304;DHT22;17112;48.636;10.152;2024-02-23T03:17:36;8.10;69.30
30304;DHT22;17112;48.636;10.152;2024-02-23T03:20:03;8.20;69.20
30304;DHT22;17112;48.636;10.152;2024-02-23T03:22:35;8.10;69.10
30304;DHT22;17112;48.636;10.152;2024-02-23T03:25:02;8.10;69.10
30304;DHT22;17112;48.636;10.152;2024-02-23T03:27:34;8.10;69.10
30304;DHT22;17112;48.636;10.152;2024-02-23T03:30:02;8.10;69.20
30304;DHT22;17112;48.636;10.152;2024-02-23T03:32:28;8.10;69.10
30304;DHT22;17112;48.636;10.152;2024-02-23T03:34:54;8.10;69.20
30304;DHT22;17112;48.636;10.152;2024-02-23T03:37:19;8.10;69.20
30304;DHT22;17112;48.636;10.152;2024-02-23T03:39:45;8.10;69.30
30304;DHT22;17112;48.636;10.152;2024-02-23T03:42:11;8.10;69.30
30304;DHT22;17112;48.636;10.152;2024-02-23T03:44:36;8.10;69.20
30304;DHT22;17112;48.636;10.152;2024-02-23T03:47:03;8.10;69.20
30304;DHT22;17112;48.636;10.152;2024-02-23T03:49:29;8.10;69.40
30304;DHT22;17112;48.636;10.152;2024-02-23T03:51:55;8.10;69.50
30304;DHT22;17112;48.636;10.152;2024-02-23T03:54:20;8.10;69.70
30304;DHT22;17112;48.636;10.152;2024-02-23T03:56:46;8.10;69.70
30304;DHT22;17112;48.636;10.152;2024-02-23T03:59:12;8.00;69.80
30304;DHT22;17112;48.636;10.152;2024-02-23T04:01:40;8.00;69.80
30304;DHT22;17112;48.636;10.152;2024-02-23T04:04:06;8.00;69.90
30304;DHT22;17112;48.636;10.152;2024-02-23T04:06:33;8.00;70.00
30304;DHT22;17112;48.636;10.152;2024-02-23T04:08:59;8.00;70.20
30304;DHT22;17112;48.636;10.152;2024-02-23T04:11:25;7.90;70.20
30304;DHT22;17112;48.636;10.152;2024-02-23T04:13:51;7.90;70.10
30304;DHT22;17112;48.636;10.152;2024-02-23T04:16:16;7.90;70.20
30304;DHT22;17112;48.636;10.152;2024-02-23T04:18:42;7.90;70.40
30304;DHT22;17112;48.636;10.152;2024-02-23T04:21:08;7.90;70.50
30304;DHT22;17112;48.636;10.152;2024-02-23T04:23:34;7.90;70.70
30304;DHT22;17112;48.636;10.152;2024-02-23T04:25:59;7.90;70.70
30304;DHT22;17112;48.636;10.152;2024-02-23T04:28:25;7.90;70.60
30304;DHT22;17112;48.636;10.152;2024-02-23T04:30:53;7.80;70.50
30304;DHT22;17112;48.636;10.152;2024-02-23T04:33:19;7.90;70.60
30304;DHT22;17112;48.636;10.152;2024-02-23T04:35:44;7.80;70.70
30304;DHT22;17112;48.636;10.152;2024-02-23T04:38:10;7.80;70.80
30304;DHT22;17112;48.636;10.152;2024-02-23T04:40:36;7.80;70.90
30304;DHT22;17112;48.636;10.152;2024-02-23T04:43:02;7.80;71.00
30304;DHT22;17112;48.636;10.152;2024-02-23T04:45:28;7.80;71.10
30304;DHT22;17112;48.636;10.152;2024-02-23T04:47:55;7.80;71.10
30304;DHT22;17112;48.636;10.152;2024-02-23T04:50:21;7.80;71.20
30304;DHT22;17112;48.636;10.152;2024-02-23T04:52:46;7.80;71.30
30304;DHT22;17112;48.636;10.152;2024-02-23T04:55:12;7.80;71.30
30304;DHT22;17112;48.636;10.152;2024-02-23T04:57:38;8.10;71.40
30304;DHT22;17112;48.636;10.152;2024-02-23T05:00:05;7.80;71.20
30304;DHT22;17112;48.636;10.152;2024-02-23T05:02:33;7.80;71.20
30304;DHT22;17112;48.636;10.152;2024-02-23T05:05:02;7.80;71.10
30304;DHT22;17112;48.636;10.152;2024-02-23T05:07:30;7.80;71.10
30304;DHT22;17112;48.636;10.152;2024-02-23T05:09:56;7.80;71.10
30304;DHT22;17112;48.636;10.152;2024-02-23T05:12:22;7.80;71.30
30304;DHT22;17112;48.636;10.152;2024-02-23T05:14:47;7.80;71.40
30304;DHT22;17112;48.636;10.152;2024-02-23T05:17:13;7.70;71.40
30304;DHT22;17112;48.636;10.152;2024-02-23T05:19:39;7.70;71.30
30304;DHT22;17112;48.636;10.152;2024-02-23T05:22:04;7.70;71.40
30304;DHT22;17112;48.636;10.152;2024-02-23T05:24:30;7.70;71.60
30304;DHT22;17112;48.636;10.152;2024-02-23T05:26:56;7.70;71.70
30304;DHT22;17112;48.636;10.152;2024-02-23T05:29:23;7.70;71.80
30304;DHT22;17112;48.636;10.152;2024-02-23T05:31:52;7.70;71.70
30304;DHT22;17112;48.636;10.152;2024-02-23T05:34:18;7.70;71.80
30304;DHT22;17112;48.636;10.152;2024-02-23T05:36:45;7.80;71.90
30304;DHT22;17112;48.636;10.152;2024-02-23T05:39:15;7.80;71.90
30304;DHT22;17112;48.636;10.152;2024-02-23T05:41:41;7.80;71.90
30304;DHT22;17112;48.636;10.152;2024-02-23T05:44:07;7.80;71.90
30304;DHT22;17112;48.636;10.152;2024-02-23T05:46:35;7.80;71.80
30304;DHT22;17112;48.636;10.152;2024-02-23T05:49:01;7.80;71.50
30304;DHT22;17112;48.636;10.152;2024-02-23T05:51:28;7.80;71.40
30304;DHT22;17112;48.636;10.152;2024-02-23T05:53:58;7.80;71.70
30304;DHT22;17112;48.636;10.152;2024-02-23T05:56:24;7.80;71.90
30304;DHT22;17112;48.636;10.152;2024-02-23T05:58:50;7.70;71.70
30304;DHT22;17112;48.636;10.152;2024-02-23T06:01:17;7.70;71.80
30304;DHT22;17112;48.636;10.152;2024-02-23T06:03:43;7.70;71.80
30304;DHT22;17112;48.636;10.152;2024-02-23T06:06:10;7.70;71.90
30304;DHT22;17112;48.636;10.152;2024-02-23T06:08:36;7.70;71.90
30304;DHT22;17112;48.636;10.152;2024-02-23T06:11:02;7.70;71.90
30304;DHT22;17112;48.636;10.152;2024-02-23T06:13:32;7.70;71.90
30304;DHT22;17112;48.636;10.152;2024-02-23T06:15:57;7.70;71.90
30304;DHT22;17112;48.636;10.152;2024-02-23T06:18:23;7.70;71.80
30304;DHT22;17112;48.636;10.152;2024-02-23T06:20:49;7.70;71.80
30304;DHT22;17112;48.636;10.152;2024-02-23T06:23:16;7.70;71.80
30304;DHT22;17112;48.636;10.152;2024-02-23T06:25:42;7.70;71.70
30304;DHT22;17112;48.636;10.152;2024-02-23T06:28:08;7.70;71.60
30304;DHT22;17112;48.636;10.152;2024-02-23T06:30:33;7.70;71.40
30304;DHT22;17112;48.636;10.152;2024-02-23T06:32:59;7.70;71.30
30304;DHT22;17112;48.636;10.152;2024-02-23T06:35:25;7.60;71.40
30304;DHT22;17112;48.636;10.152;2024-02-23T06:37:50;7.60;71.30
30304;DHT22;17112;48.636;10.152;2024-02-23T06:40:17;7.60;71.20
30304;DHT22;17112;48.636;10.152;2024-02-23T06:42:43;7.60;71.30
30304;DHT22;17112;48.636;10.152;2024-02-23T06:45:09;7.60;71.20
30304;DHT22;17112;48.636;10.152;2024-02-23T06:47:35;7.60;71.30
30304;DHT22;17112;48.636;10.152;2024-02-23T06:50:01;7.60;71.40
30304;DHT22;17112;48.636;10.152;2024-02-23T06:52:29;7.60;71.40
30304;DHT22;17112;48.636;10.152;2024-02-23T06:54:54;7.60;71.30
30304;DHT22;17112;48.636;10.152;2024-02-23T06:57:20;7.60;71.10
30304;DHT22;17112;48.636;10.152;2024-02-23T06:59:46;7.60;71.00
30304;DHT22;17112;48.636;10.152;2024-02-23T07:02:11;7.60;71.00
30304;DHT22;17112;48.636;10.152;2024-02-23T07:04:37;7.70;71.10
30304;DHT22;17112;48.636;10.152;2024-02-23T07:07:03;7.70;71.10
30304;DHT22;17112;48.636;10.152;2024-02-23T07:09:33;7.70;71.10
30304;DHT22;17112;48.636;10.152;2024-02-23T07:11:59;7.70;71.10
30304;DHT22;17112;48.636;10.152;2024-02-23T07:14:24;7.70;70.90
30304;DHT22;17112;48.636;10.152;2024-02-23T07:16:50;7.70;70.90
30304;DHT22;17112;48.636;10.152;2024-02-23T07:19:18;7.60;70.80
30304;DHT22;17112;48.636;10.152;2024-02-23T07:21:45;7.70;70.80
30304;DHT22;17112;48.636;10.152;2024-02-23T07:24:11;7.60;70.80
30304;DHT22;17112;48.636;10.152;2024-02-23T07:26:37;7.60;70.90
30304;DHT22;17112;48.636;10.152;2024-02-23T07:29:03;7.60;71.00
30304;DHT22;17112;48.636;10.152;2024-02-23T07:31:29;7.60;71.10
30304;DHT22;17112;48.636;10.152;2024-02-23T07:33:54;7.60;71.10
30304;DHT22;17112;48.636;10.152;2024-02-23T07:36:20;7.60;71.10
30304;DHT22;17112;48.636;10.152;2024-02-23T07:38:46;7.60;71.30
30304;DHT22;17112;48.636;10.152;2024-02-23T07:41:12;7.60;71.30
30304;DHT22;17112;48.636;10.152;2024-02-23T07:43:39;7.60;71.40
30304;DHT22;17112;48.636;10.152;2024-02-23T07:46:05;7.60;71.50
30304;DHT22;17112;48.636;10.152;2024-02-23T07:48:34;7.70;71.70
30304;DHT22;17112;48.636;10.152;2024-02-23T07:51:01;7.70;71.60
30304;DHT22;17112;48.636;10.152;2024-02-23T07:53:27;7.70;71.40
30304;DHT22;17112;48.636;10.152;2024-02-23T07:55:53;7.70;71.40
30304;DHT22;17112;48.636;10.152;2024-02-23T07:58:19;7.80;71.50
30304;DHT22;17112;48.636;10.152;2024-02-23T08:00:44;7.80;71.60
30304;DHT22;17112;48.636;10.152;2024-02-23T08:03:10;7.80;71.50
30304;DHT22;17112;48.636;10.152;2024-02-23T08:05:36;7.90;71.60
30304;DHT22;17112;48.636;10.152;2024-02-23T08:08:02;7.90;71.60
30304;DHT22;17112;48.636;10.152;2024-02-23T08:10:28;7.90;71.60
30304;DHT22;17112;48.636;10.152;2024-02-23T08:12:54;8.00;71.60
30304;DHT22;17112;48.636;10.152;2024-02-23T08:15:19;8.00;71.60
30304;DHT22;17112;48.636;10.152;2024-02-23T08:17:45;8.00;71.40
30304;DHT22;17112;48.636;10.152;2024-02-23T08:20:11;8.00;71.30
30304;DHT22;17112;48.636;10.152;2024-02-23T08:22:36;8.10;71.20
30304;DHT22;17112;48.636;10.152;2024-02-23T08:25:02;8.10;71.20
30304;DHT22;17112;48.636;10.152;2024-02-23T08:27:28;8.10;71.10
30304;DHT22;17112;48.636;10.152;2024-02-23T08:29:54;8.10;71.00
30304;DHT22;17112;48.636;10.152;2024-02-23T08:32:19;8.10;71.00
30304;DHT22;17112;48.636;10.152;2024-02-23T08:34:45;8.10;70.80
30304;DHT22;17112;48.636;10.152;2024-02-23T08:37:12;8.20;70.90
30304;DHT22;17112;48.636;10.152;2024-02-23T08:39:38;8.20;70.70
30304;DHT22;17112;48.636;10.152;2024-02-23T08:42:03;8.20;70.60
30304;DHT22;17112;48.636;10.152;2024-02-23T08:44:29;8.20;70.50
30304;DHT22;17112;48.636;10.152;2024-02-23T08:46:55;8.20;70.40
30304;DHT22;17112;48.636;10.152;2024-02-23T08:49:21;8.20;70.30
30304;DHT22;17112;48.636;10.152;2024-02-23T08:51:47;8.20;70.10
30304;DHT22;17112;48.636;10.152;2024-02-23T08:54:13;8.20;70.10
30304;DHT22;17112;48.636;10.152;2024-02-23T08:56:39;8.20;70.30
30304;DHT22;17112;48.636;10.152;2024-02-23T08:59:08;8.20;70.20
30304;DHT22;17112;48.636;10.152;2024-02-23T09:01:34;8.20;70.10
30304;DHT22;17112;48.636;10.152;2024-02-23T09:04:00;8.10;70.10
30304;DHT22;17112;48.636;10.152;2024-02-23T09:06:26;8.20;70.30
30304;DHT22;17112;48.636;10.152;2024-02-23T09:08:52;8.20;70.30
30304;DHT22;17112;48.636;10.152;2024-02-23T09:11:17;8.20;70.30
30304;DHT22;17112;48.636;10.152;2024-02-23T09:13:43;8.20;70.20
30304;DHT22;17112;48.636;10.152;2024-02-23T09:16:09;8.20;70.80
30304;DHT22;17112;48.636;10.152;2024-02-23T09:18:35;8.20;70.10
30304;DHT22;17112;48.636;10.152;2024-02-23T09:21:01;8.20;70.10
30304;DHT22;17112;48.636;10.152;2024-02-23T09:23:27;8.20;70.10
30304;DHT22;17112;48.636;10.152;2024-02-23T09:25:52;8.30;70.10
30304;DHT22;17112;48.636;10.152;2024-02-23T09:28:18;8.30;70.10
30304;DHT22;17112;48.636;10.152;2024-02-23T09:30:44;8.30;70.00
30304;DHT22;17112;48.636;10.152;2024-02-23T09:33:10;8.30;70.10
30304;DHT22;17112;48.636;10.152;2024-02-23T09:35:35;8.30;70.00
30304;DHT22;17112;48.636;10.152;2024-02-23T09:38:01;8.30;70.10
30304;DHT22;17112;48.636;10.152;2024-02-23T09:40:28;8.30;70.00
30304;DHT22;17112;48.636;10.152;2024-02-23T09:42:57;8.40;70.20
30304;DHT22;17112;48.636;10.152;2024-02-23T09:45:27;8.40;70.00
30304;DHT22;17112;48.636;10.152;2024-02-23T09:47:57;8.50;69.80
30304;DHT22;17112;48.636;10.152;2024-02-23T09:50:24;8.50;69.60
30304;DHT22;17112;48.636;10.152;2024-02-23T09:52:50;8.50;69.60
30304;DHT22;17112;48.636;10.152;2024-02-23T09:55:21;8.50;69.50
30304;DHT22;17112;48.636;10.152;2024-02-23T09:57:48;8.50;69.30
30304;DHT22;17112;48.636;10.152;2024-02-23T10:00:17;8.50;69.40
30304;DHT22;17112;48.636;10.152;2024-02-23T10:02:43;8.50;69.20
30304;DHT22;17112;48.636;10.152;2024-02-23T10:05:10;8.60;69.40
30304;DHT22;17112;48.636;10.152;2024-02-23T10:07:37;8.60;69.30
30304;DHT22;17112;48.636;10.152;2024-02-23T10:10:07;8.60;69.40
30304;DHT22;17112;48.636;10.152;2024-02-23T10:12:33;8.60;69.20
30304;DHT22;17112;48.636;10.152;2024-02-23T10:14:59;8.60;69.10
30304;DHT22;17112;48.636;10.152;2024-02-23T10:17:27;8.60;69.00
30304;DHT22;17112;48.636;10.152;2024-02-23T10:19:53;8.70;68.90
30304;DHT22;17112;48.636;10.152;2024-02-23T10:22:19;8.70;68.80
30304;DHT22;17112;48.636;10.152;2024-02-23T10:24:46;8.70;68.60
30304;DHT22;17112;48.636;10.152;2024-02-23T10:27:12;8.70;68.60
30304;DHT22;17112;48.636;10.152;2024-02-23T10:29:38;8.70;68.70
30304;DHT22;17112;48.636;10.152;2024-02-23T10:32:05;8.70;68.70
30304;DHT22;17112;48.636;10.152;2024-02-23T10:34:31;8.70;69.00
30304;DHT22;17112;48.636;10.152;2024-02-23T10:36:57;8.70;68.60
30304;DHT22;17112;48.636;10.152;2024-02-23T10:39:24;8.70;68.50
30304;DHT22;17112;48.636;10.152;2024-02-23T10:41:57;8.80;68.40
30304;DHT22;17112;48.636;10.152;2024-02-23T10:44:27;8.80;68.20
30304;DHT22;17112;48.636;10.152;2024-02-23T10:46:55;8.80;68.30
30304;DHT22;17112;48.636;10.152;2024-02-23T10:49:24;8.80;68.40
30304;DHT22;17112;48.636;10.152;2024-02-23T10:51:53;8.80;68.10
30304;DHT22;17112;48.636;10.152;2024-02-23T10:54:20;8.90;68.20
30304;DHT22;17112;48.636;10.152;2024-02-23T10:56:48;8.90;68.00
30304;DHT22;17112;48.636;10.152;2024-02-23T10:59:14;9.00;68.00
30304;DHT22;17112;48.636;10.152;2024-02-23T11:01:48;9.00;67.90
30304;DHT22;17112;48.636;10.152;2024-02-23T11:04:21;9.00;67.60
30304;DHT22;17112;48.636;10.152;2024-02-23T11:06:56;9.00;67.50
30304;DHT22;17112;48.636;10.152;2024-02-23T11:09:31;9.10;67.60
30304;DHT22;17112;48.636;10.152;2024-02-23T11:11:58;9.10;67.70
30304;DHT22;17112;48.636;10.152;2024-02-23T11:14:37;9.20;67.60
30304;DHT22;17112;48.636;10.152;2024-02-23T11:17:04;9.20;66.70
30304;DHT22;17112;48.636;10.152;2024-02-23T11:19:34;9.20;67.10
30304;DHT22;17112;48.636;10.152;2024-02-23T11:22:01;9.20;67.00
30304;DHT22;17112;48.636;10.152;2024-02-23T11:24:30;9.20;67.10
30304;DHT22;17112;48.636;10.152;2024-02-23T11:27:01;9.20;66.80
30304;DHT22;17112;48.636;10.152;2024-02-23T11:29:34;9.20;66.70
30304;DHT22;17112;48.636;10.152;2024-02-23T11:32:02;9.20;66.60
30304;DHT22;17112;48.636;10.152;2024-02-23T11:34:30;9.20;66.40
30304;DHT22;17112;48.636;10.152;2024-02-23T11:36:56;9.20;66.40
30304;DHT22;17112;48.636;10.152;2024-02-23T11:39:23;9.20;66.10
30304;DHT22;17112;48.636;10.152;2024-02-23T11:41:50;9.20;65.90
30304;DHT22;17112;48.636;10.152;2024-02-23T11:44:16;9.20;65.70
30304;DHT22;17112;48.636;10.152;2024-02-23T11:46:43;9.20;65.90
30304;DHT22;17112;48.636;10.152;2024-02-23T11:49:16;9.20;65.60
30304;DHT22;17112;48.636;10.152;2024-02-23T11:51:41;9.20;65.60
30304;DHT22;17112;48.636;10.152;2024-02-23T11:54:07;9.10;65.60
30304;DHT22;17112;48.636;10.152;2024-02-23T11:56:33;9.10;65.60
30304;DHT22;17112;48.636;10.152;2024-02-23T11:58:59;9.10;65.60
30304;DHT22;17112;48.636;10.152;2024-02-23T12:01:24;9.10;65.20
30304;DHT22;17112;48.636;10.152;2024-02-23T12:03:50;9.10;65.50
30304;DHT22;17112;48.636;10.152;2024-02-23T12:06:17;9.10;65.30
30304;DHT22;17112;48.636;10.152;2024-02-23T12:08:42;9.10;65.20
30304;DHT22;17112;48.636;10.152;2024-02-23T12:11:11;9.10;65.30
30304;DHT22;17112;48.636;10.152;2024-02-23T12:13:39;9.10;65.20
30304;DHT22;17112;48.636;10.152;2024-02-23T12:16:07;9.10;65.20
30304;DHT22;17112;48.636;10.152;2024-02-23T12:18:35;9.10;65.00
30304;DHT22;17112;48.636;10.152;2024-02-23T12:21:01;9.20;64.90
30304;DHT22;17112;48.636;10.152;2024-02-23T12:23:40;9.10;64.90
30304;DHT22;17112;48.636;10.152;2024-02-23T12:26:06;9.20;64.40
30304;DHT22;17112;48.636;10.152;2024-02-23T12:28:32;9.20;64.60
30304;DHT22;17112;48.636;10.152;2024-02-23T12:31:02;9.20;64.70
30304;DHT22;17112;48.636;10.152;2024-02-23T12:33:29;9.20;64.50
30304;DHT22;17112;48.636;10.152;2024-02-23T12:35:55;9.20;64.50
30304;DHT22;17112;48.636;10.152;2024-02-23T12:38:22;9.20;64.10
30304;DHT22;17112;48.636;10.152;2024-02-23T12:40:47;9.20;63.80
30304;DHT22;17112;48.636;10.152;2024-02-23T12:43:13;9.20;64.00
30304;DHT22;17112;48.636;10.152;2024-02-23T12:45:40;9.20;64.00
30304;DHT22;17112;48.636;10.152;2024-02-23T12:48:06;9.20;63.90
30304;DHT22;17112;48.636;10.152;2024-02-23T12:50:32;9.20;63.60
30304;DHT22;17112;48.636;10.152;2024-02-23T12:52:57;9.20;64.00
30304;DHT22;17112;48.636;10.152;2024-02-23T12:55:26;9.20;64.00
30304;DHT22;17112;48.636;10.152;2024-02-23T12:57:54;9.20;63.90
30304;DHT22;17112;48.636;10.152;2024-02-23T13:00:20;9.20;63.90
30304;DHT22;17112;48.636;10.152;2024-02-23T13:02:46;9.30;63.70
30304;DHT22;17112;48.636;10.152;2024-02-23T13:05:12;9.30;63.50
30304;DHT22;17112;48.636;10.152;2024-02-23T13:07:37;9.30;63.20
30304;DHT22;17112;48.636;10.152;2024-02-23T13:10:06;9.30;63.20
30304;DHT22;17112;48.636;10.152;2024-02-23T13:12:32;9.30;63.50
30304;DHT22;17112;48.636;10.152;2024-02-23T13:14:58;9.30;63.40
30304;DHT22;17112;48.636;10.152;2024-02-23T13:17:24;9.40;63.30
30304;DHT22;17112;48.636;10.152;2024-02-23T13:19:49;9.40;63.40
30304;DHT22;17112;48.636;10.152;2024-02-23T13:22:15;9.40;63.50
30304;DHT22;17112;48.636;10.152;2024-02-23T13:24:41;9.40;63.10
30304;DHT22;17112;48.636;10.152;2024-02-23T13:27:06;9.50;63.00
30304;DHT22;17112;48.636;10.152;2024-02-23T13:29:32;9.50;62.80
30304;DHT22;17112;48.636;10.152;2024-02-23T13:31:58;9.50;62.70
30304;DHT22;17112;48.636;10.152;2024-02-23T13:34:23;9.50;62.80
30304;DHT22;17112;48.636;10.152;2024-02-23T13:36:49;9.50;62.70
30304;DHT22;17112;48.636;10.152;2024-02-23T13:39:18;9.60;62.90
30304;DHT22;17112;48.636;10.152;2024-02-23T13:41:43;9.60;62.80
30304;DHT22;17112;48.636;10.152;2024-02-23T13:44:09;9.60;62.90
30304;DHT22;17112;48.636;10.152;2024-02-23T13:46:38;9.60;62.40
30304;DHT22;17112;48.636;10.152;2024-02-23T13:49:06;9.70;62.60
30304;DHT22;17112;48.636;10.152;2024-02-23T13:51:32;9.70;62.80
30304;DHT22;17112;48.636;10.152;2024-02-23T13:53:58;9.80;62.70
30304;DHT22;17112;48.636;10.152;2024-02-23T13:56:24;9.80;62.70
30304;DHT22;17112;48.636;10.152;2024-02-23T13:58:50;9.90;62.50
30304;DHT22;17112;48.636;10.152;2024-02-23T14:01:16;9.90;61.90
30304;DHT22;17112;48.636;10.152;2024-02-23T14:03:42;10.00;62.10
30304;DHT22;17112;48.636;10.152;2024-02-23T14:06:08;10.00;61.90
30304;DHT22;17112;48.636;10.152;2024-02-23T14:08:34;10.10;62.00
30304;DHT22;17112;48.636;10.152;2024-02-23T14:11:03;10.10;61.70
30304;DHT22;17112;48.636;10.152;2024-02-23T14:13:31;10.10;61.30
30304;DHT22;17112;48.636;10.152;2024-02-23T14:15:58;10.20;61.30
30304;DHT22;17112;48.636;10.152;2024-02-23T14:18:24;10.10;61.20
30304;DHT22;17112;48.636;10.152;2024-02-23T14:20:50;10.10;61.20
30304;DHT22;17112;48.636;10.152;2024-02-23T14:23:17;10.10;61.00
30304;DHT22;17112;48.636;10.152;2024-02-23T14:25:43;10.10;61.20
30304;DHT22;17112;48.636;10.152;2024-02-23T14:28:09;10.10;61.00
30304;DHT22;17112;48.636;10.152;2024-02-23T14:30:35;10.10;61.10
30304;DHT22;17112;48.636;10.152;2024-02-23T14:33:01;10.10;61.10
30304;DHT22;17112;48.636;10.152;2024-02-23T14:35:27;10.10;61.30
30304;DHT22;17112;48.636;10.152;2024-02-23T14:37:52;10.10;61.30
30304;DHT22;17112;48.636;10.152;2024-02-23T14:40:18;10.10;61.00
30304;DHT22;17112;48.636;10.152;2024-02-23T14:42:44;10.10;61.00
30304;DHT22;17112;48.636;10.152;2024-02-23T14:45:10;10.10;61.10
30304;DHT22;17112;48.636;10.152;2024-02-23T14:47:39;10.10;61.30
30304;DHT22;17112;48.636;10.152;2024-02-23T14:50:10;10.10;61.00
30304;DHT22;17112;48.636;10.152;2024-02-23T14:52:36;10.10;61.20
30304;DHT22;17112;48.636;10.152;2024-02-23T14:55:02;10.10;61.20
30304;DHT22;17112;48.636;10.152;2024-02-23T14:57:29;10.10;61.20
30304;DHT22;17112;48.636;10.152;2024-02-23T14:59:54;10.10;61.30
30304;DHT22;17112;48.636;10.152;2024-02-23T15:02:22;10.10;61.30
30304;DHT22;17112;48.636;10.152;2024-02-23T15:04:48;10.10;61.10
30304;DHT22;17112;48.636;10.152;2024-02-23T15:07:14;10.10;61.20
30304;DHT22;17112;48.636;10.152;2024-02-23T15:09:40;10.10;61.30
30304;DHT22;17112;48.636;10.152;2024-02-23T15:12:06;10.10;61.10
30304;DHT22;17112;48.636;10.152;2024-02-23T15:14:32;10.10;61.20
30304;DHT22;17112;48.636;10.152;2024-02-23T15:16:57;10.10;61.40
30304;DHT22;17112;48.636;10.152;2024-02-23T15:19:23;10.00;61.50
30304;DHT22;17112;48.636;10.152;2024-02-23T15:21:49;10.00;61.50
30304;DHT22;17112;48.636;10.152;2024-02-23T15:24:18;10.00;61.50